Time;durP1;ratioP1;P1;durP2;ratioP2;P2;SDS_P1;SDS_P2;PMS_P1;PMS_P2;Temp;Humidity;BMP_temperature;BMP_pressure;BME280_temperature;BME280_humidity;BME280_pressure;Samples;Min_cycle;Max_cycle;Signal;HPM_P1;HPM_P2
2021/04/25 00:01:57;;;;;;;15.77;6.00;;;;;;;;;;6165262;23;20469;-90
2021/04/25 00:05:02;;;;;;;15.23;5.80;;;;;;;;;;6166941;23;20189;-92
2021/04/25 00:08:07;;;;;;;13.03;6.13;;;;;;;;;;6165940;23;20192;-90
2021/04/25 00:11:12;;;;;;;13.17;5.83;;;;;;;;;;6166056;23;20172;-91
2021/04/25 00:14:18;;;;;;;11.77;5.47;;;;;;;;;;6167921;23;20184;-90
2021/04/25 00:17:23;;;;;;;14.50;5.80;;;;;;;;;;6167857;23;20180;-89
2021/04/25 00:20:27;;;;;;;15.00;6.10;;;;;;;;;;6167961;23;20164;-90
2021/04/25 00:23:32;;;;;;;14.80;6.37;;;;;;;;;;6179998;23;20209;-89
2021/04/25 00:26:38;;;;;;;13.80;5.73;;;;;;;;;;6181211;23;20179;-90
2021/04/25 00:29:43;;;;;;;17.30;6.50;;;;;;;;;;6184455;23;20188;-88
2021/04/25 00:32:48;;;;;;;13.73;6.40;;;;;;;;;;6183999;23;20244;-90
2021/04/25 00:35:53;;;;;;;16.70;6.73;;;;;;;;;;6182764;23;20168;-90
2021/04/25 00:38:57;;;;;;;10.63;5.60;;;;;;;;;;6198898;23;20188;-89
2021/04/25 00:42:04;;;;;;;15.90;7.07;;;;;;;;;;6184215;23;20188;-89
2021/04/25 00:45:18;;;;;;;12.53;5.97;;;;;;;;;;6186137;23;20195;-90
2021/04/25 00:48:23;;;;;;;13.47;6.03;;;;;;;;;;6182824;23;20168;-92
2021/04/25 00:51:28;;;;;;;13.47;6.10;;;;;;;;;;6181039;23;20164;-89
2021/04/25 00:54:33;;;;;;;14.77;6.37;;;;;;;;;;6179153;23;20183;-90
2021/04/25 00:57:39;;;;;;;14.90;6.07;;;;;;;;;;6199953;23;20152;-93
2021/04/25 01:00:44;;;;;;;13.80;5.83;;;;;;;;;;6181901;23;20168;-91
2021/04/25 01:03:48;;;;;;;11.37;5.70;;;;;;;;;;6180907;23;20505;-92
2021/04/25 01:06:52;;;;;;;14.63;6.00;;;;;;;;;;6198661;23;20230;-90
2021/04/25 01:09:57;;;;;;;11.67;5.90;;;;;;;;;;6181076;23;20191;-91
2021/04/25 01:13:02;;;;;;;12.30;5.80;;;;;;;;;;6181042;23;20198;-92
2021/04/25 01:16:07;;;;;;;12.73;6.33;;;;;;;;;;6180768;23;20627;-91
2021/04/25 01:19:12;;;;;;;16.27;6.10;;;;;;;;;;6179832;23;20175;-90
2021/04/25 01:22:18;;;;;;;9.93;5.40;;;;;;;;;;6167817;23;20245;-90
2021/04/25 01:25:24;;;;;;;15.70;6.80;;;;;;;;;;6168657;23;20620;-91
2021/04/25 01:28:28;;;;;;;14.47;6.43;;;;;;;;;;6167373;23;20213;-91
2021/04/25 01:31:33;;;;;;;13.57;6.17;;;;;;;;;;6168697;23;20164;-92
2021/04/25 01:34:38;;;;;;;14.37;6.63;;;;;;;;;;6168135;23;20611;-92
2021/04/25 01:37:43;;;;;;;18.83;6.03;;;;;;;;;;6167216;23;20244;-90
2021/04/25 01:40:48;;;;;;;20.13;6.43;;;;;;;;;;6166870;23;20189;-90
2021/04/25 01:43:53;;;;;;;21.00;7.33;;;;;;;;;;6167923;23;20169;-90
2021/04/25 01:46:57;;;;;;;14.77;5.90;;;;;;;;;;6168739;23;20169;-91
2021/04/25 01:50:02;;;;;;;14.00;6.43;;;;;;;;;;6168215;23;20172;-91
2021/04/25 01:53:10;;;;;;;13.33;5.90;;;;;;;;;;6166514;23;20197;-92
2021/04/25 01:56:14;;;;;;;15.27;6.63;;;;;;;;;;6166120;23;20176;-92
2021/04/25 01:59:19;;;;;;;17.03;6.13;;;;;;;;;;6167617;23;20218;-90
2021/04/25 02:02:24;;;;;;;14.30;6.10;;;;;;;;;;6165723;23;20216;-92
2021/04/25 02:05:28;;;;;;;15.53;7.10;;;;;;;;;;6166948;23;20204;-92
2021/04/25 02:08:34;;;;;;;11.50;6.43;;;;;;;;;;6166207;23;20216;-90
2021/04/25 02:11:41;;;;;;;13.63;5.93;;;;;;;;;;6167113;23;20156;-89
2021/04/25 02:14:46;;;;;;;14.20;5.90;;;;;;;;;;6167893;23;20623;-92
2021/04/25 02:17:51;;;;;;;15.63;5.97;;;;;;;;;;6168445;23;20169;-91
2021/04/25 02:20:55;;;;;;;15.43;6.23;;;;;;;;;;6173861;23;20191;-91
2021/04/25 02:24:01;;;;;;;13.27;6.63;;;;;;;;;;6180831;23;20175;-91
2021/04/25 02:27:05;;;;;;;16.80;6.60;;;;;;;;;;6180754;23;20167;-90
2021/04/25 02:30:11;;;;;;;16.10;6.30;;;;;;;;;;6179498;23;20192;-92
2021/04/25 02:33:15;;;;;;;19.30;7.03;;;;;;;;;;6179171;23;20192;-91
2021/04/25 02:36:20;;;;;;;13.80;5.90;;;;;;;;;;6180224;23;20234;-91
2021/04/25 02:39:26;;;;;;;12.13;6.23;;;;;;;;;;6179096;23;20171;-91
2021/04/25 02:42:30;;;;;;;15.60;6.73;;;;;;;;;;6179887;23;20627;-91
2021/04/25 02:45:35;;;;;;;15.13;6.10;;;;;;;;;;6179631;23;20500;-90
2021/04/25 02:48:40;;;;;;;13.47;6.30;;;;;;;;;;6197133;23;20219;-90
2021/04/25 02:51:44;;;;;;;11.53;5.80;;;;;;;;;;6178441;23;20242;-89
2021/04/25 02:54:49;;;;;;;15.13;6.43;;;;;;;;;;6178996;23;20172;-90
2021/04/25 02:57:54;;;;;;;15.23;6.67;;;;;;;;;;6195517;23;20248;-90
2021/04/25 03:00:59;;;;;;;16.83;6.73;;;;;;;;;;6179652;23;20168;-91
2021/04/25 03:04:03;;;;;;;14.97;6.33;;;;;;;;;;6179621;23;20224;-92
2021/04/25 03:07:08;;;;;;;16.30;6.50;;;;;;;;;;6179192;23;20171;-92
2021/04/25 03:10:15;;;;;;;15.37;6.27;;;;;;;;;;6179325;23;20172;-90
2021/04/25 03:13:19;;;;;;;15.00;6.90;;;;;;;;;;6177829;23;20234;-92
2021/04/25 03:16:25;;;;;;;15.33;6.47;;;;;;;;;;6179339;23;20531;-92
2021/04/25 03:19:29;;;;;;;15.93;6.77;;;;;;;;;;6179177;23;20235;-91
2021/04/25 03:22:34;;;;;;;13.37;6.33;;;;;;;;;;6165147;23;20189;-92
2021/04/25 03:25:40;;;;;;;14.33;6.10;;;;;;;;;;6162930;23;20211;-91
2021/04/25 03:28:45;;;;;;;13.57;6.23;;;;;;;;;;6161918;23;20219;-91
2021/04/25 03:31:49;;;;;;;17.00;7.00;;;;;;;;;;6164002;23;20164;-91
2021/04/25 03:34:54;;;;;;;15.30;6.87;;;;;;;;;;6164881;23;20177;-90
2021/04/25 03:37:59;;;;;;;13.17;6.53;;;;;;;;;;6165441;23;20619;-92
2021/04/25 03:41:04;;;;;;;16.33;6.40;;;;;;;;;;6165593;23;20172;-92
2021/04/25 03:44:10;;;;;;;15.50;6.90;;;;;;;;;;6165780;23;20196;-90
2021/04/25 03:47:14;;;;;;;14.97;6.67;;;;;;;;;;6182643;23;20169;-91
2021/04/25 03:50:20;;;;;;;15.60;7.03;;;;;;;;;;6165601;23;20255;-90
2021/04/25 03:53:24;;;;;;;17.10;6.90;;;;;;;;;;6165443;23;20196;-90
2021/04/25 03:56:30;;;;;;;18.43;6.87;;;;;;;;;;6166026;23;20176;-90
2021/04/25 03:59:35;;;;;;;15.07;7.23;;;;;;;;;;6167210;23;20216;-91
2021/04/25 04:02:40;;;;;;;16.00;7.37;;;;;;;;;;6166018;23;20177;-92
2021/04/25 04:05:44;;;;;;;17.10;7.40;;;;;;;;;;6168504;23;20169;-90
2021/04/25 04:08:49;;;;;;;17.07;7.27;;;;;;;;;;6168449;23;20188;-90
2021/04/25 04:11:55;;;;;;;19.00;7.60;;;;;;;;;;6168416;23;20259;-91
2021/04/25 04:15:00;;;;;;;18.73;7.30;;;;;;;;;;6168795;23;20200;-91
2021/04/25 04:18:05;;;;;;;18.67;7.37;;;;;;;;;;6168972;23;20188;-89
2021/04/25 04:21:10;;;;;;;18.67;7.23;;;;;;;;;;6178498;23;20234;-91
2021/04/25 04:24:14;;;;;;;32.77;7.67;;;;;;;;;;6197067;23;20196;-90
2021/04/25 04:27:20;;;;;;;15.23;7.20;;;;;;;;;;6177626;23;20171;-91
2021/04/25 04:30:24;;;;;;;15.33;6.67;;;;;;;;;;6177679;23;20276;-91
2021/04/25 04:33:29;;;;;;;16.20;7.87;;;;;;;;;;6175696;23;20199;-91
2021/04/25 04:36:33;;;;;;;15.63;7.20;;;;;;;;;;6193682;23;20176;-92
2021/04/25 04:39:38;;;;;;;22.07;8.40;;;;;;;;;;6176649;23;20168;-92
2021/04/25 04:42:43;;;;;;;21.57;7.93;;;;;;;;;;6178260;23;20192;-92
2021/04/25 04:45:51;;;;;;;23.57;9.17;;;;;;;;;;6178198;23;20203;-91
2021/04/25 04:48:56;;;;;;;14.83;7.23;;;;;;;;;;6176016;23;20276;-90
2021/04/25 04:52:01;;;;;;;20.90;7.57;;;;;;;;;;6176753;23;20169;-90
2021/04/25 04:55:06;;;;;;;16.10;7.30;;;;;;;;;;6178130;23;20168;-91
2021/04/25 04:58:11;;;;;;;17.27;8.00;;;;;;;;;;6177761;23;20218;-89
2021/04/25 05:01:16;;;;;;;18.53;8.27;;;;;;;;;;6177235;23;20701;-90
2021/04/25 05:04:21;;;;;;;17.00;7.13;;;;;;;;;;6176328;23;20665;-92
2021/04/25 05:07:25;;;;;;;15.10;6.80;;;;;;;;;;6177373;23;20160;-90
2021/04/25 05:10:30;;;;;;;21.80;7.53;;;;;;;;;;6176956;23;20172;-92
2021/04/25 05:13:35;;;;;;;16.80;7.57;;;;;;;;;;6178868;23;20191;-90
2021/04/25 05:16:40;;;;;;;13.77;7.13;;;;;;;;;;6178712;23;20220;-90
2021/04/25 05:19:45;;;;;;;18.77;7.67;;;;;;;;;;6179340;23;20175;-90
2021/04/25 05:22:50;;;;;;;17.17;7.87;;;;;;;;;;6178236;23;20192;-90
2021/04/25 05:25:54;;;;;;;13.60;7.47;;;;;;;;;;6177785;23;20170;-91
2021/04/25 05:29:00;;;;;;;17.57;7.60;;;;;;;;;;6177464;23;20171;-91
2021/04/25 05:32:05;;;;;;;14.63;7.13;;;;;;;;;;6178341;23;20159;-91
2021/04/25 05:35:10;;;;;;;16.23;7.57;;;;;;;;;;6176951;23;20168;-90
2021/04/25 05:38:15;;;;;;;17.67;8.30;;;;;;;;;;6178589;23;20180;-92
2021/04/25 05:41:20;;;;;;;15.40;7.70;;;;;;;;;;6177216;23;20671;-90
2021/04/25 05:44:27;;;;;;;18.77;7.63;;;;;;;;;;6195246;23;20199;-91
2021/04/25 05:47:32;;;;;;;22.27;8.93;;;;;;;;;;6177734;23;20179;-87
2021/04/25 05:50:37;;;;;;;16.73;8.13;;;;;;;;;;6178087;23;20284;-89
2021/04/25 05:53:42;;;;;;;15.53;7.20;;;;;;;;;;6179329;23;20247;-90
2021/04/25 05:56:47;;;;;;;16.87;7.87;;;;;;;;;;6176685;23;20225;-91
2021/04/25 05:59:52;;;;;;;18.20;8.00;;;;;;;;;;6176465;23;20237;-89
2021/04/25 06:02:56;;;;;;;19.57;8.40;;;;;;;;;;6177021;23;20164;-90
2021/04/25 06:06:01;;;;;;;13.60;7.50;;;;;;;;;;6183718;23;20175;-89
2021/04/25 06:09:06;;;;;;;18.67;8.37;;;;;;;;;;6175576;23;20170;-89
2021/04/25 06:12:12;;;;;;;20.00;7.83;;;;;;;;;;6177931;23;20175;-91
2021/04/25 06:15:18;;;;;;;15.25;6.82;;;;;;;;;;6193411;23;20219;-90
2021/04/25 06:18:23;;;;;;;16.25;7.53;;;;;;;;;;6177596;23;20212;-91
2021/04/25 06:21:28;;;;;;;19.45;8.35;;;;;;;;;;6164133;23;20239;-90
2021/04/25 06:24:33;;;;;;;13.95;7.10;;;;;;;;;;6166154;23;20224;-87
2021/04/25 06:27:39;;;;;;;15.63;7.78;;;;;;;;;;6165006;23;20168;-87
2021/04/25 06:30:44;;;;;;;14.57;7.22;;;;;;;;;;6164163;23;20509;-93
2021/04/25 06:33:49;;;;;;;16.55;7.47;;;;;;;;;;6166414;23;20245;-91
2021/04/25 06:36:54;;;;;;;17.58;7.93;;;;;;;;;;6165624;23;20197;-91
2021/04/25 06:39:59;;;;;;;13.52;6.60;;;;;;;;;;6163042;23;20168;-90
2021/04/25 06:43:04;;;;;;;15.00;7.15;;;;;;;;;;6163842;23;20164;-91
2021/04/25 06:46:10;;;;;;;14.02;7.70;;;;;;;;;;6165154;23;20658;-90
2021/04/25 06:49:15;;;;;;;15.75;7.05;;;;;;;;;;6164253;23;20167;-92
2021/04/25 06:52:19;;;;;;;16.10;7.47;;;;;;;;;;6164612;23;20195;-91
2021/04/25 06:55:24;;;;;;;13.98;7.50;;;;;;;;;;6164090;23;20212;-91
2021/04/25 06:58:29;;;;;;;15.73;8.15;;;;;;;;;;6164238;23;20554;-91
2021/04/25 07:01:34;;;;;;;21.63;8.43;;;;;;;;;;6163541;23;20172;-91
2021/04/25 07:04:40;;;;;;;19.90;8.50;;;;;;;;;;6163951;23;20171;-91
2021/04/25 07:07:48;;;;;;;16.58;8.20;;;;;;;;;;6163038;23;20193;-90
2021/04/25 07:10:53;;;;;;;22.15;7.90;;;;;;;;;;6163413;23;20172;-90
2021/04/25 07:13:57;;;;;;;23.65;10.10;;;;;;;;;;6165738;23;20191;-90
2021/04/25 07:17:03;;;;;;;15.07;7.88;;;;;;;;;;6164423;23;20288;-92
2021/04/25 07:20:09;;;;;;;15.88;8.43;;;;;;;;;;6164937;23;20241;-92
2021/04/25 07:23:14;;;;;;;16.95;7.90;;;;;;;;;;6164747;23;20168;-90
2021/04/25 07:26:18;;;;;;;14.20;7.45;;;;;;;;;;6164443;23;20180;-91
2021/04/25 07:29:23;;;;;;;17.13;7.93;;;;;;;;;;6163246;23;20175;-92
2021/04/25 07:32:28;;;;;;;17.73;8.35;;;;;;;;;;6164949;23;20144;-92
2021/04/25 07:35:33;;;;;;;19.00;8.00;;;;;;;;;;6169306;23;20220;-94
2021/04/25 07:38:41;;;;;;;15.68;8.13;;;;;;;;;;6167422;23;20223;-94
2021/04/25 07:41:46;;;;;;;14.23;8.00;;;;;;;;;;6165832;23;20216;-94
2021/04/25 07:44:50;;;;;;;19.20;8.13;;;;;;;;;;6167582;23;20169;-93
2021/04/25 07:47:56;;;;;;;20.23;8.38;;;;;;;;;;6167081;23;20216;-92
2021/04/25 07:51:01;;;;;;;17.33;8.63;;;;;;;;;;6166461;23;20521;-92
2021/04/25 07:54:05;;;;;;;18.50;7.78;;;;;;;;;;6168812;23;20219;-92
2021/04/25 07:57:10;;;;;;;14.52;7.90;;;;;;;;;;6167578;23;20217;-91
2021/04/25 08:00:16;;;;;;;17.60;8.32;;;;;;;;;;6166875;23;20172;-93
2021/04/25 08:03:21;;;;;;;17.83;8.15;;;;;;;;;;6166916;23;20149;-92
2021/04/25 08:06:26;;;;;;;18.83;8.07;;;;;;;;;;6165396;23;20292;-92
2021/04/25 08:09:31;;;;;;;15.25;7.75;;;;;;;;;;6168017;23;20199;-92
2021/04/25 08:12:35;;;;;;;18.80;7.20;;;;;;;;;;6164546;23;20631;-93
2021/04/25 08:15:40;;;;;;;17.30;7.93;;;;;;;;;;6164605;23;20177;-93
2021/04/25 08:18:46;;;;;;;15.88;8.05;;;;;;;;;;6164831;23;20608;-92
2021/04/25 08:22:00;;;;;;;16.42;8.20;;;;;;;;;;6165602;23;20196;-92
2021/04/25 08:25:05;;;;;;;19.50;8.10;;;;;;;;;;6167296;23;20388;-93
2021/04/25 08:28:10;;;;;;;14.75;8.18;;;;;;;;;;6165214;23;20557;-91
2021/04/25 08:31:14;;;;;;;16.50;8.10;;;;;;;;;;6166426;23;20189;-90
2021/04/25 08:34:21;;;;;;;14.27;7.85;;;;;;;;;;6164698;23;20618;-91
2021/04/25 08:37:29;;;;;;;14.05;8.20;;;;;;;;;;6167649;23;20157;-92
2021/04/25 08:40:35;;;;;;;16.83;9.05;;;;;;;;;;6168952;23;20172;-90
2021/04/25 08:43:41;;;;;;;16.80;7.90;;;;;;;;;;6168559;23;20196;-94
2021/04/25 08:46:47;;;;;;;14.73;8.13;;;;;;;;;;6169469;23;20257;-91
2021/04/25 08:49:53;;;;;;;14.85;7.53;;;;;;;;;;6169034;23;20181;-92
2021/04/25 08:53:00;;;;;;;13.07;7.70;;;;;;;;;;6169623;23;20192;-88
2021/04/25 08:56:05;;;;;;;15.90;8.30;;;;;;;;;;6168480;23;20208;-91
2021/04/25 08:59:09;;;;;;;13.95;8.00;;;;;;;;;;6169022;23;20255;-92
2021/04/25 09:02:14;;;;;;;17.98;8.40;;;;;;;;;;6168058;23;20216;-90
2021/04/25 09:05:20;;;;;;;17.75;8.50;;;;;;;;;;6169766;23;20345;-93
2021/04/25 09:08:41;;;;;;;14.98;7.75;;;;;;;;;;6169325;23;20220;-90
2021/04/25 09:11:49;;;;;;;17.98;8.50;;;;;;;;;;6167555;23;20177;-90
2021/04/25 09:14:54;;;;;;;14.27;7.45;;;;;;;;;;6168915;23;20224;-89
2021/04/25 09:18:02;;;;;;;16.17;9.18;;;;;;;;;;6170004;23;20173;-91
2021/04/25 09:21:10;;;;;;;15.68;8.73;;;;;;;;;;6179128;23;20195;-90
2021/04/25 09:24:22;;;;;;;17.70;8.93;;;;;;;;;;6181084;23;20172;-89
2021/04/25 09:27:28;;;;;;;18.40;8.60;;;;;;;;;;6182687;23;20172;-90
2021/04/25 09:30:34;;;;;;;18.02;8.38;;;;;;;;;;6180774;23;20218;-89
2021/04/25 09:33:49;;;;;;;16.80;8.32;;;;;;;;;;6181023;23;20243;-91
2021/04/25 09:36:55;;;;;;;16.48;8.85;;;;;;;;;;6181832;23;20178;-90
2021/04/25 09:40:02;;;;;;;16.08;8.57;;;;;;;;;;6182562;23;20221;-93
2021/04/25 09:43:09;;;;;;;19.15;9.85;;;;;;;;;;6183292;23;20179;-94
2021/04/25 09:46:14;;;;;;;17.23;10.07;;;;;;;;;;6183549;23;20168;-91
2021/04/25 09:49:38;;;;;;;16.80;8.38;;;;;;;;;;6200123;23;20173;-94
2021/04/25 09:52:44;;;;;;;18.60;8.75;;;;;;;;;;6182423;23;20180;-90
2021/04/25 09:55:56;;;;;;;14.27;8.73;;;;;;;;;;6183509;23;20224;-91
2021/04/25 09:59:02;;;;;;;17.35;8.48;;;;;;;;;;6183734;23;20479;-93
2021/04/25 10:02:08;;;;;;;15.40;9.25;;;;;;;;;;6183353;23;20180;-92
2021/04/25 10:05:16;;;;;;;15.82;8.70;;;;;;;;;;6185455;23;20168;-92
2021/04/25 10:08:28;;;;;;;16.83;8.73;;;;;;;;;;6184507;23;20215;-90
2021/04/25 10:11:33;;;;;;;16.55;8.90;;;;;;;;;;6184164;23;20225;-89
2021/04/25 10:14:38;;;;;;;18.42;8.75;;;;;;;;;;6183300;23;20198;-92
2021/04/25 10:17:55;;;;;;;17.13;8.80;;;;;;;;;;6182921;23;20164;-90
2021/04/25 10:21:00;;;;;;;17.00;8.73;;;;;;;;;;6184983;23;20234;-90
2021/04/25 10:24:07;;;;;;;15.68;8.55;;;;;;;;;;6185057;23;20171;-93
2021/04/25 10:27:13;;;;;;;18.48;9.13;;;;;;;;;;6182092;23;20219;-88
2021/04/25 10:30:21;;;;;;;14.45;8.52;;;;;;;;;;6184306;23;20174;-92
2021/04/25 10:33:26;;;;;;;17.02;9.10;;;;;;;;;;6183657;23;20227;-92
2021/04/25 10:36:50;;;;;;;14.57;8.13;;;;;;;;;;6184214;23;20175;-92
2021/04/25 10:39:57;;;;;;;17.00;8.68;;;;;;;;;;6184153;23;20171;-91
2021/04/25 10:43:04;;;;;;;20.63;9.07;;;;;;;;;;6186937;23;20200;-92
2021/04/25 10:46:09;;;;;;;14.80;8.15;;;;;;;;;;6184935;23;20167;-92
2021/04/25 10:49:29;;;;;;;16.60;7.90;;;;;;;;;;6187401;23;20168;-92
2021/04/25 10:52:35;;;;;;;12.85;7.53;;;;;;;;;;6184301;23;20188;-90
2021/04/25 10:55:46;;;;;;;17.88;8.10;;;;;;;;;;6182634;23;20614;-90
2021/04/25 10:59:06;;;;;;;15.32;8.50;;;;;;;;;;6187821;23;20168;-93
2021/04/25 11:02:14;;;;;;;16.58;7.93;;;;;;;;;;6186157;23;20171;-92
2021/04/25 11:05:39;;;;;;;15.20;8.02;;;;;;;;;;6182618;23;20167;-93
2021/04/25 11:08:44;;;;;;;14.15;7.03;;;;;;;;;;6184041;23;20176;-92
2021/04/25 11:11:54;;;;;;;15.25;6.75;;;;;;;;;;6186844;23;20172;-90
2021/04/25 11:14:59;;;;;;;12.38;7.72;;;;;;;;;;6182073;23;20315;-92
2021/04/25 11:18:27;;;;;;;15.18;6.18;;;;;;;;;;6183280;23;20223;-93
2021/04/25 11:21:42;;;;;;;14.18;6.85;;;;;;;;;;6170629;23;20191;-93
2021/04/25 11:24:47;;;;;;;16.63;7.22;;;;;;;;;;6171855;23;20277;-93
2021/04/25 11:27:53;;;;;;;12.68;6.57;;;;;;;;;;6172117;23;20172;-92
2021/04/25 11:30:57;;;;;;;10.00;6.45;;;;;;;;;;6172215;23;20237;-92
2021/04/25 11:34:03;;;;;;;12.63;7.47;;;;;;;;;;6170866;23;20312;-91
2021/04/25 11:37:09;;;;;;;11.43;6.38;;;;;;;;;;6172522;23;20173;-94
2021/04/25 11:40:13;;;;;;;13.35;6.53;;;;;;;;;;6172176;23;20227;-92
2021/04/25 11:43:19;;;;;;;12.90;7.13;;;;;;;;;;6173467;23;20172;-92
2021/04/25 11:46:31;;;;;;;12.75;7.13;;;;;;;;;;6171562;23;20192;-92
2021/04/25 11:49:39;;;;;;;16.42;7.25;;;;;;;;;;6172979;23;20165;-90
2021/04/25 11:52:44;;;;;;;14.38;8.00;;;;;;;;;;6172982;23;20192;-94
2021/04/25 11:55:48;;;;;;;10.88;6.60;;;;;;;;;;6172388;23;20216;-91
2021/04/25 11:59:04;;;;;;;10.00;6.28;;;;;;;;;;6173192;23;20192;-91
2021/04/25 12:02:10;;;;;;;12.13;6.13;;;;;;;;;;6174131;23;20181;-92
2021/04/25 12:05:15;;;;;;;15.98;5.85;;;;;;;;;;6172616;23;20241;-92
2021/04/25 12:08:20;;;;;;;11.95;5.93;;;;;;;;;;6173405;23;20152;-92
2021/04/25 12:11:26;;;;;;;12.23;6.40;;;;;;;;;;6172612;23;20239;-91
2021/04/25 12:14:32;;;;;;;12.15;5.22;;;;;;;;;;6171779;23;20187;-91
2021/04/25 12:17:37;;;;;;;8.63;4.80;;;;;;;;;;6171831;23;20165;-89
2021/04/25 12:20:43;;;;;;;8.65;4.20;;;;;;;;;;6179486;23;20167;-92
2021/04/25 12:23:49;;;;;;;6.55;3.42;;;;;;;;;;6186685;23;20156;-90
2021/04/25 12:26:54;;;;;;;8.57;4.20;;;;;;;;;;6187873;23;20227;-90
2021/04/25 12:30:00;;;;;;;9.75;5.47;;;;;;;;;;6186013;23;20183;-90
2021/04/25 12:33:06;;;;;;;12.13;5.47;;;;;;;;;;6186242;23;20151;-91
2021/04/25 12:36:12;;;;;;;9.70;5.22;;;;;;;;;;6187141;23;20164;-91
2021/04/25 12:39:17;;;;;;;10.35;3.95;;;;;;;;;;6187602;23;20168;-92
2021/04/25 12:42:22;;;;;;;5.05;3.15;;;;;;;;;;6185826;23;20168;-90
2021/04/25 12:45:31;;;;;;;6.38;3.60;;;;;;;;;;6187299;23;20183;-91
2021/04/25 12:48:38;;;;;;;6.35;3.08;;;;;;;;;;6187528;23;20232;-89
2021/04/25 12:51:47;;;;;;;8.35;3.00;;;;;;;;;;6184142;23;20167;-91
2021/04/25 12:54:51;;;;;;;7.38;3.58;;;;;;;;;;6185723;23;20214;-92
2021/04/25 12:58:07;;;;;;;5.68;2.95;;;;;;;;;;6184480;23;20180;-90
2021/04/25 13:01:21;;;;;;;6.53;2.90;;;;;;;;;;6184633;23;20284;-89
2021/04/25 13:04:26;;;;;;;4.65;2.80;;;;;;;;;;6184399;23;20212;-90
2021/04/25 13:07:41;;;;;;;5.78;2.88;;;;;;;;;;6185340;23;20218;-88
2021/04/25 13:10:50;;;;;;;6.30;3.13;;;;;;;;;;6182558;23;20263;-90
2021/04/25 13:14:05;;;;;;;3.67;2.22;;;;;;;;;;6179953;23;20239;-92
2021/04/25 13:17:10;;;;;;;5.95;2.58;;;;;;;;;;6197966;23;20169;-91
2021/04/25 13:20:24;;;;;;;6.65;3.30;;;;;;;;;;6182165;23;20212;-88
2021/04/25 13:23:31;;;;;;;7.72;3.20;;;;;;;;;;6181897;23;20172;-91
2021/04/25 13:26:36;;;;;;;5.15;2.97;;;;;;;;;;6182171;23;20246;-92
2021/04/25 13:33:03;;;;;;;7.05;3.60;;;;;;;;;;6203374;23;20192;-89
2021/04/25 13:36:15;;;;;;;5.65;3.00;;;;;;;;;;6183334;23;20274;-92
2021/04/25 13:39:21;;;;;;;6.93;3.40;;;;;;;;;;6181577;23;20188;-92
2021/04/25 13:42:25;;;;;;;8.55;3.90;;;;;;;;;;6183892;23;20168;-92
2021/04/25 13:45:30;;;;;;;8.95;3.85;;;;;;;;;;6203182;23;20221;-93
2021/04/25 13:48:36;;;;;;;5.63;3.03;;;;;;;;;;6182966;23;20183;-89
2021/04/25 13:51:41;;;;;;;7.38;3.15;;;;;;;;;;6183200;23;20156;-92
2021/04/25 13:54:45;;;;;;;9.57;3.67;;;;;;;;;;6182554;23;20286;-92
2021/04/25 13:57:53;;;;;;;6.07;3.40;;;;;;;;;;6183542;23;20195;-90
2021/04/25 14:00:58;;;;;;;9.60;4.47;;;;;;;;;;6181945;23;20180;-91
2021/04/25 14:04:04;;;;;;;10.07;4.63;;;;;;;;;;6182211;23;20212;-91
2021/04/25 14:07:10;;;;;;;6.63;3.88;;;;;;;;;;6181158;23;20575;-90
2021/04/25 14:10:17;;;;;;;7.63;3.90;;;;;;;;;;6181753;23;20171;-91
2021/04/25 14:13:22;;;;;;;10.80;3.90;;;;;;;;;;6183328;23;20164;-89
2021/04/25 14:16:28;;;;;;;7.60;3.50;;;;;;;;;;6181716;23;20168;-90
2021/04/25 14:19:33;;;;;;;8.35;3.92;;;;;;;;;;6180952;23;20236;-92
2021/04/25 14:22:38;;;;;;;8.43;4.10;;;;;;;;;;6168710;23;20259;-90
2021/04/25 14:25:43;;;;;;;9.18;4.35;;;;;;;;;;6167632;23;20183;-90
2021/04/25 14:28:48;;;;;;;9.45;4.78;;;;;;;;;;6167817;23;20486;-88
2021/04/25 14:31:53;;;;;;;9.43;4.47;;;;;;;;;;6168384;23;20635;-88
2021/04/25 14:34:58;;;;;;;8.00;3.90;;;;;;;;;;6167740;23;20239;-89
2021/04/25 14:38:03;;;;;;;9.38;3.78;;;;;;;;;;6169424;23;20169;-90
2021/04/25 14:41:08;;;;;;;9.82;4.57;;;;;;;;;;6167462;23;20172;-89
2021/04/25 14:44:14;;;;;;;8.32;4.20;;;;;;;;;;6169734;23;20165;-91
2021/04/25 14:47:19;;;;;;;7.25;4.43;;;;;;;;;;6170008;23;20221;-90
2021/04/25 14:50:27;;;;;;;7.35;4.03;;;;;;;;;;6173031;23;20168;-90
2021/04/25 14:53:35;;;;;;;8.07;4.18;;;;;;;;;;6172314;23;20224;-91
2021/04/25 15:02:37;;;;;;;9.50;3.90;;;;;;;;;;6184574;22;20234;-82
2021/04/25 15:05:43;;;;;;;8.45;3.63;;;;;;;;;;6202169;23;20171;-83
2021/04/25 15:08:48;;;;;;;8.27;3.85;;;;;;;;;;6200933;23;20251;-83
2021/04/25 15:11:52;;;;;;;9.27;3.63;;;;;;;;;;6218495;23;20182;-83
2021/04/25 15:14:56;;;;;;;7.82;3.50;;;;;;;;;;6218897;23;20579;-83
2021/04/25 15:18:01;;;;;;;8.73;4.00;;;;;;;;;;6201786;23;20531;-83
2021/04/25 15:21:07;;;;;;;9.80;3.42;;;;;;;;;;6200517;23;20242;-82
2021/04/25 15:24:11;;;;;;;9.68;3.70;;;;;;;;;;6197893;23;20239;-83
2021/04/25 15:27:15;;;;;;;7.70;3.28;;;;;;;;;;6188876;23;20465;-83
2021/04/25 15:30:21;;;;;;;8.02;2.90;;;;;;;;;;6190522;23;20555;-85
2021/04/25 15:33:26;;;;;;;10.07;3.30;;;;;;;;;;6170156;23;20170;-83
2021/04/25 15:36:31;;;;;;;6.95;2.90;;;;;;;;;;6171213;23;20172;-83
2021/04/25 15:39:35;;;;;;;9.50;3.28;;;;;;;;;;6172038;23;20223;-83
2021/04/25 15:42:40;;;;;;;8.02;3.20;;;;;;;;;;6188522;23;20175;-83
2021/04/25 15:45:48;;;;;;;6.90;2.60;;;;;;;;;;6189081;23;20814;-83
2021/04/25 15:48:53;;;;;;;5.50;2.83;;;;;;;;;;6171421;23;20408;-83
2021/04/25 15:51:58;;;;;;;7.55;3.50;;;;;;;;;;6170669;23;20211;-83
2021/04/25 15:55:03;;;;;;;6.45;2.90;;;;;;;;;;6195234;23;20575;-83
2021/04/25 15:58:09;;;;;;;9.13;2.97;;;;;;;;;;6173512;23;20187;-84
2021/04/25 16:01:13;;;;;;;6.32;2.97;;;;;;;;;;6174358;23;20583;-82
2021/04/25 16:04:18;;;;;;;9.02;3.10;;;;;;;;;;6161642;23;20402;-84
2021/04/25 16:07:23;;;;;;;7.22;2.70;;;;;;;;;;6161755;23;20200;-84
2021/04/25 16:10:29;;;;;;;7.72;3.00;;;;;;;;;;6161528;23;20263;-83
2021/04/25 16:13:33;;;;;;;5.30;2.50;;;;;;;;;;6160733;23;20239;-84
2021/04/25 16:16:37;;;;;;;8.32;2.92;;;;;;;;;;6161001;23;20216;-83
2021/04/25 16:19:41;;;;;;;7.13;2.80;;;;;;;;;;6143828;23;20524;-85
2021/04/25 16:22:47;;;;;;;8.32;2.67;;;;;;;;;;6160779;23;20180;-84
2021/04/25 16:25:51;;;;;;;5.07;2.60;;;;;;;;;;6164622;23;20211;-84
2021/04/25 16:28:55;;;;;;;6.97;2.53;;;;;;;;;;6161670;23;20579;-84
2021/04/25 16:32:00;;;;;;;6.32;2.35;;;;;;;;;;6159640;23;20220;-84
2021/04/25 16:35:13;;;;;;;8.18;2.70;;;;;;;;;;6161332;23;20203;-84
2021/04/25 16:38:18;;;;;;;12.25;3.10;;;;;;;;;;6143140;23;20172;-84
2021/04/25 16:41:22;;;;;;;6.22;2.72;;;;;;;;;;6143449;23;20224;-84
2021/04/25 16:44:27;;;;;;;7.63;2.88;;;;;;;;;;6143826;23;20220;-85
2021/04/25 16:47:32;;;;;;;6.03;2.42;;;;;;;;;;6159832;23;20180;-84
2021/04/25 16:50:36;;;;;;;6.20;2.75;;;;;;;;;;6160906;23;20248;-84
2021/04/25 16:53:43;;;;;;;7.57;3.05;;;;;;;;;;6159088;23;20484;-84
2021/04/25 16:56:48;;;;;;;5.20;2.45;;;;;;;;;;6142054;23;20261;-83
2021/04/25 16:59:54;;;;;;;7.35;2.95;;;;;;;;;;6158654;23;20183;-83
2021/04/25 17:02:58;;;;;;;8.63;2.72;;;;;;;;;;6178037;23;20219;-83
2021/04/25 17:06:03;;;;;;;9.05;2.47;;;;;;;;;;6189788;23;20171;-83
2021/04/25 17:09:09;;;;;;;8.18;2.55;;;;;;;;;;6190485;23;20184;-83
2021/04/25 17:12:16;;;;;;;5.85;2.60;;;;;;;;;;6188381;23;20208;-84
2021/04/25 17:15:20;;;;;;;8.52;2.35;;;;;;;;;;6189343;23;20433;-84
2021/04/25 17:18:24;;;;;;;12.63;2.80;;;;;;;;;;6190002;23;20522;-83
2021/04/25 17:21:29;;;;;;;5.93;2.40;;;;;;;;;;6189526;23;20191;-83
2021/04/25 17:24:34;;;;;;;7.13;2.85;;;;;;;;;;6188775;23;20219;-83
2021/04/25 17:27:38;;;;;;;7.03;2.80;;;;;;;;;;6189989;23;20172;-83
2021/04/25 17:30:43;;;;;;;5.53;2.53;;;;;;;;;;6189982;23;20536;-84
2021/04/25 17:33:48;;;;;;;5.22;2.33;;;;;;;;;;6189667;23;20243;-83
2021/04/25 17:36:52;;;;;;;9.95;3.10;;;;;;;;;;6189532;23;20215;-84
2021/04/25 17:39:57;;;;;;;12.73;3.65;;;;;;;;;;6189748;23;20219;-84
2021/04/25 17:43:02;;;;;;;8.23;3.55;;;;;;;;;;6189007;23;20180;-84
2021/04/25 17:46:06;;;;;;;5.57;2.72;;;;;;;;;;6189336;23;20207;-84
2021/04/25 17:49:10;;;;;;;7.32;3.28;;;;;;;;;;6189268;23;20421;-84
2021/04/25 17:52:15;;;;;;;6.47;2.60;;;;;;;;;;6188201;23;20548;-84
2021/04/25 17:55:20;;;;;;;6.43;2.90;;;;;;;;;;6189319;23;20278;-84
2021/04/25 17:58:24;;;;;;;12.57;3.13;;;;;;;;;;6189434;23;20474;-84
2021/04/25 18:01:29;;;;;;;9.23;3.00;;;;;;;;;;6189850;23;20581;-84
2021/04/25 18:04:33;;;;;;;5.88;3.00;;;;;;;;;;6171951;23;20168;-83
2021/04/25 18:07:37;;;;;;;8.10;2.85;;;;;;;;;;6171901;23;20175;-83
2021/04/25 18:10:43;;;;;;;12.27;3.20;;;;;;;;;;6172504;23;20542;-83
2021/04/25 18:13:47;;;;;;;8.27;3.17;;;;;;;;;;6188943;23;20195;-83
2021/04/25 18:16:54;;;;;;;6.75;3.22;;;;;;;;;;6189480;23;20543;-83
2021/04/25 18:19:58;;;;;;;9.32;2.70;;;;;;;;;;6188571;23;20259;-82
2021/04/25 18:23:03;;;;;;;7.22;2.85;;;;;;;;;;6170314;23;20575;-82
2021/04/25 18:26:09;;;;;;;10.18;3.45;;;;;;;;;;6194384;23;20172;-82
2021/04/25 18:29:13;;;;;;;9.30;3.25;;;;;;;;;;6181997;23;20172;-82
2021/04/25 18:32:18;;;;;;;9.93;3.17;;;;;;;;;;6194279;23;20611;-82